createdAt,value
2023-05-13T00:01:52.388Z,99540.89
2023-05-13T00:04:19.224Z,99540.77
2023-05-13T00:06:45.956Z,99545.15
2023-05-13T00:09:12.938Z,99539.17
2023-05-13T00:11:39.845Z,99530.27
2023-05-13T00:14:09.791Z,99532.04
2023-05-13T00:16:36.680Z,99529.66
2023-05-13T00:19:03.776Z,99527.11
2023-05-13T00:21:30.660Z,99528.00
2023-05-13T00:23:57.667Z,99533.73
2023-05-13T00:26:24.615Z,99534.64
2023-05-13T00:28:51.452Z,99537.46
2023-05-13T00:31:18.478Z,99540.96
2023-05-13T00:33:45.359Z,99541.86
2023-05-13T00:36:12.535Z,99539.83
2023-05-13T00:38:39.855Z,99539.55
2023-05-13T00:41:07.108Z,99534.95
2023-05-13T00:43:33.970Z,99534.96
2023-05-13T00:46:01.008Z,99533.09
2023-05-13T00:48:27.930Z,99537.91
2023-05-13T00:50:54.747Z,99541.00
2023-05-13T00:53:21.695Z,99541.66
2023-05-13T00:55:48.590Z,99545.98
2023-05-13T00:58:17.434Z,99542.20
2023-05-13T01:01:11.363Z,99544.14
2023-05-13T01:03:51.217Z,99542.27
2023-05-13T01:06:49.117Z,99543.52
2023-05-13T01:09:31.186Z,99547.88
2023-05-13T01:11:57.979Z,99541.83
2023-05-13T01:14:32.260Z,99541.48
2023-05-13T01:17:05.540Z,99540.77
2023-05-13T01:19:42.618Z,99540.89
2023-05-13T01:22:09.483Z,99545.52
2023-05-13T01:24:36.464Z,99547.05
2023-05-13T01:27:03.847Z,99544.64
2023-05-13T01:29:30.784Z,99551.01
2023-05-13T01:31:57.621Z,99547.66
2023-05-13T01:34:24.461Z,99550.84
2023-05-13T01:36:51.208Z,99553.89
2023-05-13T01:39:19.697Z,99557.48
2023-05-13T01:41:47.090Z,99558.16
2023-05-13T01:44:14.114Z,99561.96
2023-05-13T01:46:42.972Z,99565.09
2023-05-13T01:49:10.289Z,99564.42
2023-05-13T01:51:38.019Z,99562.73
2023-05-13T01:54:06.021Z,99564.98
2023-05-13T01:56:33.356Z,99561.88
2023-05-13T01:59:00.219Z,99562.02
2023-05-13T02:01:26.957Z,99560.95
2023-05-13T02:03:54.025Z,99551.92
2023-05-13T02:06:21.446Z,99555.76
2023-05-13T02:08:49.091Z,99560.27
2023-05-13T02:11:15.945Z,99561.37
2023-05-13T02:13:42.772Z,99560.77
2023-05-13T02:16:11.102Z,99558.27
2023-05-13T02:18:38.081Z,99558.70
2023-05-13T02:21:05.681Z,99553.98
2023-05-13T02:23:33.336Z,99552.20
2023-05-13T02:26:01.835Z,99551.42
2023-05-13T02:28:29.483Z,99551.03
2023-05-13T02:30:56.227Z,99555.46
2023-05-13T02:33:23.383Z,99556.64
2023-05-13T02:35:51.352Z,99558.58
2023-05-13T02:38:18.427Z,99559.14
2023-05-13T02:40:45.264Z,99562.83
2023-05-13T02:43:12.245Z,99563.96
2023-05-13T02:45:44.521Z,99562.50
2023-05-13T02:48:11.424Z,99564.67
2023-05-13T02:50:40.641Z,99567.18
2023-05-13T02:53:09.003Z,99567.63
2023-05-13T02:55:37.085Z,99568.41
2023-05-13T02:58:04.752Z,99566.95
2023-05-13T03:00:32.116Z,99566.16
2023-05-13T03:02:59.196Z,99567.63
2023-05-13T03:05:27.835Z,99569.24
2023-05-13T03:07:58.071Z,99565.54
2023-05-13T03:10:26.046Z,99565.98
2023-05-13T03:12:52.799Z,99561.38
2023-05-13T03:15:19.726Z,99562.32
2023-05-13T03:17:46.590Z,99562.53
2023-05-13T03:20:13.506Z,99563.44
2023-05-13T03:22:40.320Z,99571.95
2023-05-13T03:25:07.763Z,99572.89
2023-05-13T03:27:43.354Z,99573.98
2023-05-13T03:30:10.912Z,99576.62
2023-05-13T03:32:44.907Z,99582.20
2023-05-13T03:35:12.355Z,99582.07
2023-05-13T03:37:39.721Z,99585.54
2023-05-13T03:40:08.068Z,99586.38
2023-05-13T03:42:35.382Z,99588.28
2023-05-13T03:45:03.042Z,99592.09
2023-05-13T03:47:32.343Z,99594.02
2023-05-13T03:50:01.172Z,99595.25
2023-05-13T03:52:30.985Z,99597.17
2023-05-13T03:54:58.399Z,99594.61
2023-05-13T03:57:25.662Z,99594.45
2023-05-13T03:59:52.478Z,99598.23
2023-05-13T04:02:21.751Z,99600.32
2023-05-13T04:04:48.802Z,99599.63
2023-05-13T04:07:16.082Z,99601.02
2023-05-13T04:09:42.965Z,99602.73
2023-05-13T04:12:09.814Z,99601.52
2023-05-13T04:14:36.815Z,99599.82
2023-05-13T04:17:03.661Z,99602.26
2023-05-13T04:19:30.509Z,99607.45
2023-05-13T04:21:57.279Z,99606.27
2023-05-13T04:24:24.136Z,99605.45
2023-05-13T04:26:50.980Z,99605.69
2023-05-13T04:29:18.559Z,99606.61
2023-05-13T04:31:46.148Z,99607.33
2023-05-13T04:34:13.076Z,99603.02
2023-05-13T04:36:40.645Z,99603.56
2023-05-13T04:39:08.923Z,99608.27
2023-05-13T04:41:35.965Z,99607.25
2023-05-13T04:44:03.313Z,99608.80
2023-05-13T04:46:30.595Z,99608.48
2023-05-13T04:48:57.483Z,99609.20
2023-05-13T04:51:25.452Z,99602.65
2023-05-13T04:53:52.729Z,99601.13
2023-05-13T04:56:20.792Z,99602.35
2023-05-13T04:58:47.636Z,99604.96
2023-05-13T05:01:15.525Z,99610.86
2023-05-13T05:03:42.695Z,99594.96
2023-05-13T05:06:09.829Z,99589.95
2023-05-13T05:08:36.965Z,99588.23
2023-05-13T05:11:03.874Z,99588.05
2023-05-13T05:13:32.796Z,99592.02
2023-05-13T05:15:59.518Z,99591.46
2023-05-13T05:18:26.533Z,99588.69
2023-05-13T05:20:54.461Z,99587.09
2023-05-13T05:23:23.790Z,99587.59
2023-05-13T05:26:10.467Z,99590.83
2023-05-13T05:28:44.968Z,99591.12
2023-05-13T05:31:12.965Z,99584.80
2023-05-13T05:33:40.511Z,99580.23
2023-05-13T05:36:08.005Z,99578.60
2023-05-13T05:38:35.431Z,99575.58
2023-05-13T05:41:03.200Z,99577.58
2023-05-13T05:43:30.666Z,99572.98
2023-05-13T05:45:57.615Z,99572.02
2023-05-13T05:48:25.629Z,99576.22
2023-05-13T05:50:52.622Z,99575.35
2023-05-13T05:53:26.353Z,99575.83
2023-05-13T05:55:53.609Z,99575.58
2023-05-13T05:58:20.960Z,99576.59
2023-05-13T06:00:47.902Z,99585.05
2023-05-13T06:03:14.910Z,99590.55
2023-05-13T06:05:42.518Z,99589.69
2023-05-13T06:08:09.442Z,99590.34
2023-05-13T06:10:36.307Z,99585.48
2023-05-13T06:13:03.538Z,99592.94
2023-05-13T06:15:30.918Z,99597.05
2023-05-13T06:17:57.902Z,99596.83
2023-05-13T06:20:25.315Z,99594.02
2023-05-13T06:22:52.068Z,99593.45
2023-05-13T06:25:18.914Z,99602.33
2023-05-13T06:27:45.644Z,99598.62
2023-05-13T06:30:12.907Z,99605.88
2023-05-13T06:32:50.361Z,99607.86
2023-05-13T06:35:27.425Z,99599.89
2023-05-13T06:37:54.178Z,99601.80
2023-05-13T06:40:21.332Z,99606.73
2023-05-13T06:42:48.384Z,99600.12
2023-05-13T06:45:23.503Z,99593.21
2023-05-13T06:47:51.492Z,99590.25
2023-05-13T06:50:18.725Z,99588.25
2023-05-13T06:52:46.852Z,99589.94
2023-05-13T06:55:13.722Z,99592.52
2023-05-13T06:57:43.241Z,99595.65
2023-05-13T07:00:11.077Z,99600.80
2023-05-13T07:02:38.059Z,99602.80
2023-05-13T07:05:05.658Z,99598.73
2023-05-13T07:07:32.541Z,99601.31
2023-05-13T07:09:59.331Z,99593.82
2023-05-13T07:12:26.227Z,99596.46
2023-05-13T07:14:53.035Z,99595.11
2023-05-13T07:17:19.921Z,99597.77
2023-05-13T07:19:47.623Z,99595.82
2023-05-13T07:22:14.479Z,99599.02
2023-05-13T07:24:41.878Z,99595.85
2023-05-13T07:27:08.741Z,99594.17
2023-05-13T07:29:35.522Z,99592.69
2023-05-13T07:32:06.017Z,99594.08
2023-05-13T07:34:32.785Z,99592.41
2023-05-13T07:36:59.863Z,99594.57
2023-05-13T07:39:27.297Z,99604.39
2023-05-13T07:41:54.435Z,99601.70
2023-05-13T07:44:21.736Z,99598.83
2023-05-13T07:46:49.275Z,99605.72
2023-05-13T07:49:16.271Z,99605.11
2023-05-13T07:51:43.111Z,99610.48
2023-05-13T07:54:10.464Z,99611.08
2023-05-13T07:56:38.304Z,99608.83
2023-05-13T07:59:05.179Z,99608.63
2023-05-13T08:01:32.097Z,99610.94
2023-05-13T08:03:59.060Z,99608.42
2023-05-13T08:07:13.641Z,99608.25
2023-05-13T08:09:40.595Z,99610.20
2023-05-13T08:12:08.014Z,99607.27
2023-05-13T08:14:34.770Z,99604.06
2023-05-13T08:17:02.175Z,99598.86
2023-05-13T08:19:28.907Z,99599.80
2023-05-13T08:21:55.705Z,99601.86
2023-05-13T08:24:22.628Z,99601.56
2023-05-13T08:26:49.451Z,99599.16
2023-05-13T08:29:16.285Z,99603.96
2023-05-13T08:31:43.324Z,99606.73
2023-05-13T08:34:10.201Z,99609.38
2023-05-13T08:36:37.352Z,99607.55
2023-05-13T08:39:04.219Z,99607.54
2023-05-13T08:41:32.188Z,99608.68
2023-05-13T08:44:00.159Z,99613.48
2023-05-13T08:46:30.091Z,99611.96
2023-05-13T08:48:57.130Z,99602.23
2023-05-13T08:51:24.040Z,99605.41
2023-05-13T08:53:51.780Z,99603.35
2023-05-13T08:56:18.506Z,99605.91
2023-05-13T08:58:46.054Z,99604.39
2023-05-13T09:01:13.167Z,99597.69
2023-05-13T09:03:43.813Z,99598.23
2023-05-13T09:06:10.545Z,99595.29
2023-05-13T09:08:37.411Z,99593.00
2023-05-13T09:11:04.184Z,99588.11
2023-05-13T09:13:31.034Z,99586.20
2023-05-13T09:15:57.998Z,99583.55
2023-05-13T09:18:30.207Z,99585.58
2023-05-13T09:20:57.211Z,99581.34
2023-05-13T09:23:24.213Z,99582.90
2023-05-13T09:25:50.932Z,99574.89
2023-05-13T09:28:17.675Z,99573.48
2023-05-13T09:30:46.771Z,99571.36
2023-05-13T09:33:15.280Z,99566.22
2023-05-13T09:35:52.960Z,99571.55
2023-05-13T09:38:27.688Z,99570.10
2023-05-13T09:40:56.199Z,99564.66
2023-05-13T09:43:24.274Z,99562.34
2023-05-13T09:45:54.890Z,99565.42
2023-05-13T09:48:25.788Z,99559.52
2023-05-13T09:50:53.631Z,99563.67
2023-05-13T09:53:21.259Z,99561.81
2023-05-13T09:55:48.659Z,99563.27
2023-05-13T10:01:11.030Z,99557.66
2023-05-13T10:03:38.117Z,99555.52
2023-05-13T10:06:05.173Z,99554.25
2023-05-13T10:08:32.274Z,99555.77
2023-05-13T10:10:59.269Z,99552.80
2023-05-13T10:13:27.820Z,99554.45
2023-05-13T10:15:55.315Z,99550.03
2023-05-13T10:18:23.952Z,99544.93
2023-05-13T10:20:53.932Z,99541.52
2023-05-13T10:23:24.840Z,99545.23
2023-05-13T10:25:52.387Z,99542.90
2023-05-13T10:28:19.322Z,99540.09
2023-05-13T10:30:46.277Z,99540.92
2023-05-13T10:33:13.125Z,99538.71
2023-05-13T10:35:43.057Z,99541.79
2023-05-13T10:38:25.723Z,99542.38
2023-05-13T10:41:14.455Z,99541.08
2023-05-13T10:43:41.478Z,99537.92
2023-05-13T10:46:11.499Z,99539.31
2023-05-13T10:48:44.555Z,99539.19
2023-05-13T10:51:14.141Z,99543.23
2023-05-13T10:53:47.936Z,99530.59
2023-05-13T10:56:15.129Z,99542.41
2023-05-13T10:58:42.103Z,99544.63
2023-05-13T11:01:12.617Z,99545.65
2023-05-13T11:03:39.925Z,99542.06
2023-05-13T11:06:24.043Z,99548.05
2023-05-13T11:08:53.581Z,99540.66
2023-05-13T11:11:22.563Z,99543.34
2023-05-13T11:14:02.678Z,99539.21
2023-05-13T11:16:29.573Z,99536.67
2023-05-13T11:18:56.599Z,99538.16
2023-05-13T11:21:35.660Z,99538.33
2023-05-13T11:24:04.146Z,99539.35
2023-05-13T11:26:56.435Z,99534.01
2023-05-13T11:29:34.456Z,99534.60
2023-05-13T11:32:03.530Z,99531.61
2023-05-13T11:34:30.750Z,99528.96
2023-05-13T11:37:08.687Z,99528.71
2023-05-13T11:39:36.127Z,99529.65
2023-05-13T11:42:10.958Z,99524.46
2023-05-13T11:44:45.301Z,99522.65
2023-05-13T11:47:12.097Z,99524.58
2023-05-13T11:49:46.429Z,99529.45
2023-05-13T11:52:18.697Z,99528.46
2023-05-13T11:54:50.066Z,99522.23
2023-05-13T11:57:23.872Z,99524.92
2023-05-13T12:00:06.861Z,99519.66
2023-05-13T12:02:35.462Z,99524.02
2023-05-13T12:05:06.126Z,99523.88
2023-05-13T12:07:33.183Z,99521.67
2023-05-13T12:10:00.991Z,99517.45
2023-05-13T12:12:28.840Z,99513.27
2023-05-13T12:14:56.283Z,99509.37
2023-05-13T12:17:23.452Z,99508.45
2023-05-13T12:20:10.983Z,99503.17
2023-05-13T12:22:49.246Z,99500.93
2023-05-13T12:25:33.111Z,99504.48
2023-05-13T12:27:59.993Z,99505.44
2023-05-13T12:30:31.897Z,99502.95
2023-05-13T12:32:59.173Z,99499.44
2023-05-13T12:35:26.362Z,99500.14
2023-05-13T12:38:03.982Z,99502.20
2023-05-13T12:40:31.431Z,99499.63
2023-05-13T12:43:01.628Z,99498.02
2023-05-13T12:45:32.696Z,99498.06
2023-05-13T12:48:00.089Z,99495.77
2023-05-13T12:50:27.128Z,99492.68
2023-05-13T12:52:53.941Z,99488.19
2023-05-13T12:55:21.210Z,99487.08
2023-05-13T12:58:14.723Z,99483.39
2023-05-13T13:00:41.564Z,99485.07
2023-05-13T13:03:08.722Z,99483.17
2023-05-13T13:05:35.908Z,99480.80
2023-05-13T13:08:05.401Z,99478.88
2023-05-13T13:10:32.530Z,99481.09
2023-05-13T13:12:59.345Z,99475.17
2023-05-13T13:15:26.427Z,99479.98
2023-05-13T13:17:53.369Z,99477.15
2023-05-13T13:20:20.536Z,99476.29
2023-05-13T13:22:47.258Z,99473.91
2023-05-13T13:25:14.115Z,99472.52
2023-05-13T13:27:40.892Z,99468.69
2023-05-13T13:30:08.250Z,99463.70
2023-05-13T13:32:35.937Z,99467.98
2023-05-13T13:35:05.667Z,99470.70
2023-05-13T13:37:32.587Z,99463.66
2023-05-13T13:39:59.395Z,99459.11
2023-05-13T13:42:40.294Z,99461.60
2023-05-13T13:45:11.338Z,99459.77
2023-05-13T13:47:38.550Z,99463.20
2023-05-13T13:50:06.417Z,99463.09
2023-05-13T13:52:33.342Z,99459.42
2023-05-13T13:55:00.619Z,99461.07
2023-05-13T13:57:27.537Z,99460.47
2023-05-13T13:59:54.325Z,99459.58
2023-05-13T14:02:21.140Z,99456.83
2023-05-13T14:04:47.954Z,99458.67
2023-05-13T14:07:15.534Z,99458.59
2023-05-13T14:09:42.381Z,99458.43
2023-05-13T14:12:18.775Z,99458.55
2023-05-13T14:14:46.840Z,99455.11
2023-05-13T14:17:14.506Z,99458.88
2023-05-13T14:26:55.219Z,99460.59
2023-05-13T14:29:23.272Z,99461.08
2023-05-13T14:31:50.142Z,99463.36
2023-05-13T14:34:16.918Z,99465.97
2023-05-13T14:36:43.707Z,99462.48
2023-05-13T14:39:10.937Z,99458.05
2023-05-13T14:41:37.833Z,99461.50
2023-05-13T14:44:04.887Z,99457.61
2023-05-13T14:46:33.949Z,99458.56
2023-05-13T14:49:00.776Z,99455.39
2023-05-13T14:51:27.809Z,99455.25
2023-05-13T14:53:54.603Z,99451.31
2023-05-13T14:56:21.329Z,99451.49
2023-05-13T14:58:48.112Z,99449.84
2023-05-13T15:01:14.922Z,99449.77
2023-05-13T15:03:42.204Z,99450.02
2023-05-13T15:06:09.872Z,99448.25
2023-05-13T15:08:37.845Z,99445.22
2023-05-13T15:11:04.889Z,99444.28
2023-05-13T15:13:36.953Z,99450.62
2023-05-13T15:16:04.201Z,99445.30
2023-05-13T15:18:31.465Z,99444.95
2023-05-13T15:20:58.352Z,99440.20
2023-05-13T15:23:25.289Z,99439.17
2023-05-13T15:25:52.107Z,99438.84
2023-05-13T15:28:18.966Z,99439.81
2023-05-13T15:30:45.862Z,99439.52
2023-05-13T15:33:12.960Z,99432.77
2023-05-13T15:35:52.492Z,99433.59
2023-05-13T15:38:23.850Z,99431.08
2023-05-13T15:40:51.089Z,99433.83
2023-05-13T15:43:18.127Z,99430.48
2023-05-13T15:45:45.159Z,99429.53
2023-05-13T15:48:12.031Z,99433.05
2023-05-13T15:50:39.386Z,99431.27
2023-05-13T15:53:06.419Z,99431.65
2023-05-13T15:55:34.103Z,99432.89
2023-05-13T15:58:00.934Z,99434.60
2023-05-13T16:00:27.958Z,99435.06
2023-05-13T16:02:54.975Z,99434.02
2023-05-13T16:05:21.866Z,99431.50
2023-05-13T16:07:48.940Z,99430.27
2023-05-13T16:10:15.890Z,99426.85
2023-05-13T16:12:43.040Z,99424.70
2023-05-13T16:15:11.385Z,99431.94
2023-05-13T16:17:38.211Z,99430.09
2023-05-13T16:20:06.005Z,99433.70
2023-05-13T16:22:34.801Z,99435.30
2023-05-13T16:25:03.310Z,99437.61
2023-05-13T16:27:30.285Z,99440.23
2023-05-13T16:29:58.077Z,99443.24
2023-05-13T16:32:25.064Z,99438.25
2023-05-13T16:34:52.088Z,99440.38
2023-05-13T16:37:18.908Z,99438.43
2023-05-13T16:39:45.841Z,99437.45
2023-05-13T16:42:12.589Z,99435.99
2023-05-13T16:44:39.416Z,99434.41
2023-05-13T16:47:07.225Z,99437.81
2023-05-13T16:49:35.847Z,99436.50
2023-05-13T16:52:06.171Z,99433.60
2023-05-13T16:54:33.296Z,99437.61
2023-05-13T16:57:00.438Z,99439.89
2023-05-13T16:59:27.491Z,99436.74
2023-05-13T17:01:54.722Z,99437.84
2023-05-13T17:04:21.597Z,99435.35
2023-05-13T17:06:48.338Z,99435.59
2023-05-13T17:09:16.254Z,99437.61
2023-05-13T17:11:43.212Z,99439.09
2023-05-13T17:14:10.001Z,99438.44
2023-05-13T17:16:37.126Z,99441.52
2023-05-13T17:19:04.077Z,99437.59
2023-05-13T17:21:30.848Z,99440.36
2023-05-13T17:23:57.785Z,99445.14
2023-05-13T17:26:24.902Z,99446.77
2023-05-13T17:28:52.110Z,99445.95
2023-05-13T17:31:18.868Z,99447.27
2023-05-13T17:33:46.396Z,99453.83
2023-05-13T17:36:13.132Z,99458.13
2023-05-13T17:38:39.980Z,99459.45
2023-05-13T17:41:06.707Z,99459.86
2023-05-13T17:43:33.480Z,99459.95
2023-05-13T17:46:00.232Z,99459.67
2023-05-13T17:48:27.105Z,99463.55
2023-05-13T17:50:54.111Z,99461.00
2023-05-13T17:53:20.977Z,99462.64
2023-05-13T17:55:48.569Z,99460.91
2023-05-13T18:01:21.730Z,99459.05
2023-05-13T18:03:48.830Z,99462.14
2023-05-13T18:06:16.163Z,99465.41
2023-05-13T18:08:43.070Z,99462.23
2023-05-13T18:11:09.993Z,99458.86
2023-05-13T18:13:36.775Z,99464.05
2023-05-13T18:16:06.338Z,99465.74
2023-05-13T18:18:33.291Z,99468.64
2023-05-13T18:21:00.540Z,99470.95
2023-05-13T18:23:27.292Z,99473.44
2023-05-13T18:25:56.184Z,99473.82
2023-05-13T18:28:23.546Z,99474.90
2023-05-13T18:30:50.606Z,99476.66
2023-05-13T18:33:20.140Z,99481.04
2023-05-13T18:35:47.077Z,99479.14
2023-05-13T18:38:13.912Z,99479.85
2023-05-13T18:40:40.888Z,99478.80
2023-05-13T18:43:07.782Z,99478.42
2023-05-13T18:45:34.769Z,99482.24
2023-05-13T18:48:01.717Z,99476.98
2023-05-13T18:50:28.529Z,99478.52
2023-05-13T18:52:55.380Z,99479.35
2023-05-13T18:55:22.222Z,99483.48
2023-05-13T18:57:50.243Z,99482.95
2023-05-13T19:00:17.909Z,99479.96
2023-05-13T19:02:44.943Z,99480.96
2023-05-13T19:05:12.353Z,99478.63
2023-05-13T19:07:39.360Z,99479.95
2023-05-13T19:10:08.764Z,99482.32
2023-05-13T19:12:35.520Z,99480.35
2023-05-13T19:15:02.791Z,99485.16
2023-05-13T19:17:30.590Z,99485.80
2023-05-13T19:20:00.261Z,99487.30
2023-05-13T19:22:27.553Z,99487.77
2023-05-13T19:24:54.403Z,99486.83
2023-05-13T19:27:22.225Z,99487.45
2023-05-13T19:29:49.473Z,99488.44
2023-05-13T19:32:16.742Z,99489.81
2023-05-13T19:34:44.484Z,99492.05
2023-05-13T19:37:11.510Z,99493.25
2023-05-13T19:39:38.281Z,99492.50
2023-05-13T19:42:05.364Z,99494.19
2023-05-13T19:44:32.475Z,99495.53
2023-05-13T19:46:59.607Z,99493.92
2023-05-13T19:49:26.620Z,99495.78
2023-05-13T19:51:56.127Z,99494.86
2023-05-13T19:54:23.305Z,99493.42
2023-05-13T19:56:50.160Z,99494.88
2023-05-13T19:59:16.969Z,99495.66
2023-05-13T20:01:43.774Z,99498.38
2023-05-13T20:04:10.651Z,99498.67
2023-05-13T20:06:37.776Z,99502.94
2023-05-13T20:09:04.786Z,99503.91
2023-05-13T20:11:32.136Z,99503.31
2023-05-13T20:13:59.669Z,99506.02
2023-05-13T20:16:27.270Z,99504.36
2023-05-13T20:18:54.278Z,99503.56
2023-05-13T20:21:21.268Z,99506.40
2023-05-13T20:24:49.391Z,99505.77
2023-05-13T20:27:16.673Z,99507.14
2023-05-13T20:29:44.750Z,99504.98
2023-05-13T20:32:11.831Z,99504.91
2023-05-13T20:34:38.866Z,99507.07
2023-05-13T20:37:06.009Z,99506.10
2023-05-13T20:39:32.946Z,99505.48
2023-05-13T20:42:00.001Z,99504.48
2023-05-13T20:44:27.479Z,99504.35
2023-05-13T20:46:54.305Z,99502.87
2023-05-13T20:49:21.481Z,99504.51
2023-05-13T20:51:48.785Z,99506.09
2023-05-13T20:54:15.981Z,99511.70
2023-05-13T20:56:42.780Z,99508.98
2023-05-13T20:59:09.958Z,99508.67
2023-05-13T21:01:37.027Z,99508.89
2023-05-13T21:04:06.169Z,99511.14
2023-05-13T21:06:33.309Z,99514.31
2023-05-13T21:09:00.196Z,99516.41
2023-05-13T21:11:27.359Z,99514.02
2023-05-13T21:13:54.160Z,99517.00
2023-05-13T21:16:21.001Z,99517.37
2023-05-13T21:18:48.030Z,99518.10
2023-05-13T21:21:14.974Z,99523.89
2023-05-13T21:23:44.060Z,99518.73
2023-05-13T21:26:10.842Z,99523.80
2023-05-13T21:28:37.754Z,99527.98
2023-05-13T21:31:04.670Z,99528.35
2023-05-13T21:33:33.123Z,99531.83
2023-05-13T21:35:59.934Z,99531.85
2023-05-13T21:38:27.071Z,99534.27
2023-05-13T21:40:53.924Z,99539.83
2023-05-13T21:43:20.786Z,99544.02
2023-05-13T21:45:48.212Z,99544.21
2023-05-13T21:48:15.363Z,99544.23
2023-05-13T21:50:42.304Z,99546.52
2023-05-13T21:53:09.135Z,99548.42
2023-05-13T21:55:36.039Z,99547.39
2023-05-13T21:58:03.224Z,99548.95
2023-05-13T22:00:30.388Z,99545.15
2023-05-13T22:02:57.312Z,99542.03
2023-05-13T22:05:24.259Z,99542.74
2023-05-13T22:07:51.035Z,99543.97
2023-05-13T22:10:17.934Z,99541.55
2023-05-13T22:12:44.715Z,99541.40
2023-05-13T22:15:12.449Z,99537.28
2023-05-13T22:17:39.381Z,99535.56
2023-05-13T22:20:07.388Z,99532.98
2023-05-13T22:22:34.223Z,99532.30
2023-05-13T22:25:01.200Z,99528.80
2023-05-13T22:27:28.034Z,99529.33
2023-05-13T22:29:54.871Z,99528.98
2023-05-13T22:32:21.701Z,99527.61
2023-05-13T22:34:48.550Z,99530.19
2023-05-13T22:37:15.795Z,99526.04
2023-05-13T22:39:42.575Z,99523.95
2023-05-13T22:42:09.483Z,99522.40
2023-05-13T22:44:36.233Z,99525.17
2023-05-13T22:47:02.968Z,99524.66
2023-05-13T22:49:29.707Z,99523.44
2023-05-13T22:51:56.458Z,99523.27
2023-05-13T22:54:24.010Z,99518.77
2023-05-13T22:56:50.866Z,99518.59
2023-05-13T22:59:17.692Z,99520.14
2023-05-13T23:01:44.598Z,99521.52
2023-05-13T23:04:11.756Z,99526.52
2023-05-13T23:06:38.721Z,99524.10
2023-05-13T23:09:05.971Z,99523.59
2023-05-13T23:11:32.733Z,99522.89
2023-05-13T23:13:59.578Z,99524.44
2023-05-13T23:16:26.447Z,99527.73
2023-05-13T23:18:55.244Z,99529.63
2023-05-13T23:21:22.248Z,99523.90
2023-05-13T23:23:50.329Z,99525.63
2023-05-13T23:26:17.173Z,99521.31
2023-05-13T23:28:43.918Z,99519.23
2023-05-13T23:31:10.877Z,99516.63
2023-05-13T23:33:37.686Z,99519.36
2023-05-13T23:36:05.051Z,99516.40
2023-05-13T23:38:31.779Z,99518.30
2023-05-13T23:40:58.545Z,99518.11
2023-05-13T23:43:25.488Z,99516.70
2023-05-13T23:45:52.387Z,99517.02
2023-05-13T23:48:19.372Z,99520.14
2023-05-13T23:50:46.094Z,99523.26
2023-05-13T23:53:12.857Z,99520.67
2023-05-13T23:55:39.597Z,99520.30
2023-05-13T23:58:06.358Z,99521.32
